Time;durP1;ratioP1;P1;durP2;ratioP2;P2;SDS_P1;SDS_P2;PMS_P1;PMS_P2;Temp;Humidity;BMP_temperature;BMP_pressure;BME280_temperature;BME280_humidity;BME280_pressure;Samples;Min_cycle;Max_cycle;Signal;HPM_P1;HPM_P2
2022/09/21 00:01:52;;;;;;;1.77;1.67;;;10.30;99.90;;;;;;5065036;28;20210;-75
2022/09/21 00:04:19;;;;;;;1.70;1.60;;;10.30;99.90;;;;;;5068033;28;20603;-75
2022/09/21 00:06:46;;;;;;;1.80;1.70;;;10.30;99.90;;;;;;5052799;28;20208;-75
2022/09/21 00:09:14;;;;;;;2.33;2.20;;;10.20;99.90;;;;;;5067595;28;20673;-75
2022/09/21 00:11:41;;;;;;;2.20;2.00;;;10.20;99.90;;;;;;5067542;28;20211;-75
2022/09/21 00:14:11;;;;;;;1.73;1.63;;;10.10;99.90;;;;;;5052291;28;20208;-75
2022/09/21 00:16:38;;;;;;;1.70;1.57;;;10.20;99.90;;;;;;5047638;28;20299;-75
2022/09/21 00:19:06;;;;;;;1.60;1.50;;;10.10;99.90;;;;;;5048069;28;20246;-75
2022/09/21 00:21:33;;;;;;;1.63;1.53;;;10.10;99.90;;;;;;5047241;28;20200;-75
2022/09/21 00:24:01;;;;;;;1.63;1.50;;;10.10;99.90;;;;;;5051039;28;20211;-75
2022/09/21 00:26:29;;;;;;;1.80;1.33;;;10.10;99.90;;;;;;5067143;28;20207;-75
2022/09/21 00:28:58;;;;;;;6.07;1.57;;;10.10;99.90;;;;;;5050007;28;20569;-75
2022/09/21 00:31:26;;;;;;;1.70;1.60;;;10.10;99.90;;;;;;5047721;28;20204;-76
2022/09/21 00:33:53;;;;;;;1.63;1.53;;;10.00;99.90;;;;;;5047290;28;20204;-75
2022/09/21 00:36:21;;;;;;;1.60;1.50;;;10.00;99.90;;;;;;5047501;28;20632;-74
2022/09/21 00:38:51;;;;;;;1.43;1.43;;;10.00;99.90;;;;;;5049103;28;20236;-75
2022/09/21 00:41:18;;;;;;;2.30;1.60;;;10.00;99.90;;;;;;5064231;28;20673;-75
2022/09/21 00:43:49;;;;;;;1.53;1.43;;;10.00;99.90;;;;;;5067555;28;20291;-75
2022/09/21 00:46:22;;;;;;;1.70;1.60;;;9.90;99.90;;;;;;5050344;28;20211;-76
2022/09/21 00:48:49;;;;;;;1.60;1.27;;;9.90;99.90;;;;;;5047286;28;20677;-75
2022/09/21 00:51:16;;;;;;;1.80;1.70;;;9.80;99.90;;;;;;5048344;28;20277;-75
2022/09/21 00:53:43;;;;;;;1.90;1.70;;;9.80;99.90;;;;;;5066205;28;20710;-75
2022/09/21 00:56:11;;;;;;;1.77;1.67;;;9.80;99.90;;;;;;5047493;28;20204;-75
2022/09/21 00:58:43;;;;;;;1.70;1.60;;;9.80;99.90;;;;;;5057922;28;20226;-75
2022/09/21 01:01:17;;;;;;;1.77;1.67;;;9.80;99.90;;;;;;5066820;28;20191;-75
2022/09/21 01:03:44;;;;;;;1.80;1.70;;;9.80;99.90;;;;;;5047258;28;20200;-74
2022/09/21 01:06:11;;;;;;;1.73;1.63;;;9.80;99.90;;;;;;5047068;28;20248;-74
2022/09/21 01:08:40;;;;;;;1.53;1.43;;;9.70;99.90;;;;;;5047445;28;20215;-74
2022/09/21 01:11:24;;;;;;;1.53;1.43;;;9.70;99.90;;;;;;5060090;28;20207;-74
2022/09/21 01:14:12;;;;;;;1.77;1.43;;;9.70;99.90;;;;;;5056946;28;20200;-73
2022/09/21 01:16:48;;;;;;;2.30;1.80;;;9.70;99.90;;;;;;5052442;28;20227;-73
2022/09/21 01:19:33;;;;;;;3.57;1.73;;;9.70;99.90;;;;;;5070805;28;20698;-73
2022/09/21 01:22:08;;;;;;;1.40;1.40;;;9.70;99.90;;;;;;5063796;28;20304;-73
2022/09/21 01:24:51;;;;;;;1.70;1.60;;;9.70;99.90;;;;;;5058693;28;20576;-76
2022/09/21 01:27:40;;;;;;;2.83;1.97;;;9.70;99.90;;;;;;5070998;28;20198;-74
2022/09/21 01:30:12;;;;;;;1.70;1.60;;;9.70;99.90;;;;;;5070699;28;20242;-74
2022/09/21 01:32:45;;;;;;;2.43;1.60;;;9.70;99.90;;;;;;5070145;28;20205;-75
2022/09/21 01:35:17;;;;;;;1.30;1.20;;;9.70;99.90;;;;;;5070557;28;20194;-73
2022/09/21 01:37:47;;;;;;;3.03;1.40;;;9.70;99.90;;;;;;5070352;28;20231;-73
2022/09/21 01:40:19;;;;;;;1.67;1.57;;;9.60;99.90;;;;;;5070699;28;20226;-73
2022/09/21 01:42:48;;;;;;;1.83;1.50;;;9.60;99.90;;;;;;5064814;28;20208;-74
2022/09/21 01:45:21;;;;;;;1.60;1.50;;;9.60;99.90;;;;;;5050798;28;20749;-74
2022/09/21 01:47:50;;;;;;;1.60;1.50;;;9.60;99.90;;;;;;5050220;28;20196;-74
2022/09/21 01:50:19;;;;;;;1.57;1.47;;;9.60;99.90;;;;;;5050279;28;20234;-72
2022/09/21 01:52:50;;;;;;;1.27;1.27;;;9.60;99.90;;;;;;5050763;28;20254;-73
2022/09/21 01:55:27;;;;;;;1.50;1.40;;;9.60;99.90;;;;;;5050694;28;20207;-76
2022/09/21 01:57:59;;;;;;;3.20;1.40;;;9.60;99.90;;;;;;5050376;28;20659;-77
2022/09/21 02:00:30;;;;;;;1.50;1.40;;;9.50;99.90;;;;;;5050479;28;20200;-76
2022/09/21 02:03:03;;;;;;;1.40;1.40;;;9.50;99.90;;;;;;5050162;28;20564;-76
2022/09/21 02:05:31;;;;;;;2.27;1.40;;;9.50;99.90;;;;;;5050236;28;20585;-75
2022/09/21 02:08:00;;;;;;;1.33;1.33;;;9.40;99.90;;;;;;5049986;28;20216;-76
2022/09/21 02:10:33;;;;;;;3.67;1.17;;;9.40;99.90;;;;;;5055790;28;20666;-75
2022/09/21 02:13:04;;;;;;;1.50;1.10;;;9.50;99.90;;;;;;5068756;28;20529;-74
2022/09/21 02:15:45;;;;;;;1.37;1.20;;;9.50;99.90;;;;;;5066788;28;20206;-76
2022/09/21 02:18:21;;;;;;;1.40;1.40;;;9.50;99.90;;;;;;5057969;28;20199;-75
2022/09/21 02:20:56;;;;;;;1.90;1.40;;;9.40;99.90;;;;;;5050037;28;20188;-75
2022/09/21 02:23:27;;;;;;;1.67;1.20;;;9.40;99.90;;;;;;5050216;28;20243;-75
2022/09/21 02:25:59;;;;;;;1.33;1.30;;;9.40;99.90;;;;;;5050529;28;20216;-74
2022/09/21 02:28:33;;;;;;;1.43;1.33;;;9.30;99.90;;;;;;5047644;28;20217;-75
2022/09/21 02:31:12;;;;;;;1.70;1.47;;;9.30;99.90;;;;;;5047885;28;20636;-75
2022/09/21 02:33:47;;;;;;;1.43;1.30;;;9.30;99.90;;;;;;5065682;28;20230;-75
2022/09/21 02:36:21;;;;;;;1.30;1.27;;;9.20;99.90;;;;;;5067506;28;20231;-75
2022/09/21 02:38:53;;;;;;;1.60;1.27;;;9.20;99.90;;;;;;5065823;28;20318;-75
2022/09/21 02:41:25;;;;;;;1.77;1.20;;;9.20;99.90;;;;;;5047461;28;20218;-74
2022/09/21 02:44:01;;;;;;;2.83;1.63;;;9.20;99.90;;;;;;5067641;28;20235;-74
2022/09/21 02:46:34;;;;;;;1.70;1.60;;;9.20;99.90;;;;;;5067745;28;20203;-76
2022/09/21 02:49:08;;;;;;;1.97;1.50;;;9.20;99.90;;;;;;5067657;28;20200;-75
2022/09/21 02:51:38;;;;;;;2.30;1.73;;;9.20;99.90;;;;;;5066291;28;20202;-76
2022/09/21 02:54:08;;;;;;;1.90;1.67;;;9.20;99.90;;;;;;5053082;28;20211;-75
2022/09/21 02:56:36;;;;;;;1.70;1.60;;;9.20;99.90;;;;;;5067380;28;20696;-75
2022/09/21 02:59:05;;;;;;;1.50;1.40;;;9.20;99.90;;;;;;5067251;28;20223;-75
2022/09/21 03:01:34;;;;;;;1.30;1.30;;;9.20;99.90;;;;;;5063565;28;20203;-75
2022/09/21 03:04:01;;;;;;;1.53;1.43;;;9.20;99.90;;;;;;5065983;28;20704;-73
2022/09/21 03:06:28;;;;;;;1.50;1.30;;;9.20;99.90;;;;;;5063196;28;20215;-73
2022/09/21 03:08:56;;;;;;;1.57;1.13;;;9.20;99.90;;;;;;5048662;28;20219;-72
2022/09/21 03:11:23;;;;;;;1.40;1.30;;;9.20;99.90;;;;;;5048723;28;20558;-73
2022/09/21 03:13:50;;;;;;;1.50;1.40;;;9.20;99.90;;;;;;5048196;28;20706;-73
2022/09/21 03:16:17;;;;;;;1.60;1.50;;;9.10;99.90;;;;;;5048877;28;20219;-73
2022/09/21 03:18:45;;;;;;;6.10;1.50;;;9.10;99.90;;;;;;5048429;28;20274;-73
2022/09/21 03:21:13;;;;;;;0.97;0.97;;;9.10;99.90;;;;;;5058009;28;20341;-73
2022/09/21 03:23:40;;;;;;;1.30;1.20;;;9.10;99.90;;;;;;5068484;28;20230;-73
2022/09/21 03:26:07;;;;;;;1.20;1.20;;;9.10;99.90;;;;;;5068045;28;20674;-73
2022/09/21 03:28:34;;;;;;;1.40;1.30;;;9.10;99.90;;;;;;5068378;28;20574;-73
2022/09/21 03:31:01;;;;;;;2.00;1.80;;;9.10;99.90;;;;;;5067998;28;20211;-74
2022/09/21 03:33:27;;;;;;;1.20;1.20;;;9.00;99.90;;;;;;5068204;28;20207;-74
2022/09/21 03:35:55;;;;;;;1.30;1.20;;;9.00;99.90;;;;;;5059047;28;20203;-73
2022/09/21 03:38:23;;;;;;;2.20;1.43;;;9.00;99.90;;;;;;5047139;28;20595;-73
2022/09/21 03:40:50;;;;;;;2.83;1.30;;;9.00;99.90;;;;;;5048229;28;20231;-74
2022/09/21 03:43:18;;;;;;;1.03;1.03;;;9.00;99.90;;;;;;5048131;28;20214;-73
2022/09/21 03:45:45;;;;;;;1.10;1.10;;;9.00;99.90;;;;;;5048099;28;20204;-73
2022/09/21 03:48:14;;;;;;;1.17;1.17;;;9.00;99.90;;;;;;5065476;28;20284;-72
2022/09/21 03:50:41;;;;;;;1.60;1.23;;;9.00;99.90;;;;;;5067685;28;20302;-72
2022/09/21 03:53:10;;;;;;;1.23;1.23;;;8.90;99.90;;;;;;5067857;28;20215;-72
2022/09/21 03:55:37;;;;;;;1.20;1.20;;;9.00;99.90;;;;;;5067752;28;20215;-73
2022/09/21 03:58:04;;;;;;;1.40;1.30;;;8.90;99.90;;;;;;5067800;28;20203;-75
2022/09/21 04:00:31;;;;;;;1.20;1.20;;;9.00;99.90;;;;;;5067764;28;20262;-75
2022/09/21 04:02:58;;;;;;;1.47;1.37;;;9.00;99.90;;;;;;5067987;28;20195;-75
2022/09/21 04:05:25;;;;;;;1.67;1.30;;;9.00;99.90;;;;;;5067618;28;20549;-75
2022/09/21 04:07:52;;;;;;;3.90;1.20;;;9.00;99.90;;;;;;5067467;28;20218;-74
2022/09/21 04:10:25;;;;;;;1.03;1.00;;;8.90;99.90;;;;;;5067686;28;20211;-75
2022/09/21 04:12:56;;;;;;;1.90;1.20;;;8.80;99.90;;;;;;5067628;28;20195;-75
2022/09/21 04:15:23;;;;;;;1.53;1.20;;;8.80;99.90;;;;;;5067600;28;20716;-74
2022/09/21 04:17:52;;;;;;;1.13;1.03;;;8.80;99.90;;;;;;5067521;28;20212;-72
2022/09/21 04:20:19;;;;;;;1.30;1.30;;;8.70;99.90;;;;;;5067516;28;20235;-75
2022/09/21 04:22:46;;;;;;;2.07;1.30;;;8.70;99.90;;;;;;5067417;28;20220;-72
2022/09/21 04:25:14;;;;;;;1.50;1.00;;;8.70;99.90;;;;;;5067306;28;20669;-75
2022/09/21 04:27:43;;;;;;;1.10;1.10;;;8.70;99.90;;;;;;5067360;28;20778;-72
2022/09/21 04:30:12;;;;;;;1.30;1.30;;;8.70;99.90;;;;;;5067370;28;20211;-73
2022/09/21 04:32:39;;;;;;;2.83;1.27;;;8.70;99.90;;;;;;5054362;28;20219;-73
2022/09/21 04:35:06;;;;;;;1.40;1.30;;;8.70;99.90;;;;;;5047363;28;20261;-74
2022/09/21 04:37:33;;;;;;;1.40;1.40;;;8.60;99.90;;;;;;5047391;28;20239;-75
2022/09/21 04:39:59;;;;;;;1.17;1.17;;;8.60;99.90;;;;;;5047480;28;20228;-73
2022/09/21 04:42:28;;;;;;;1.30;1.20;;;8.60;99.90;;;;;;5047688;28;20690;-73
2022/09/21 04:44:56;;;;;;;2.30;1.30;;;8.60;99.90;;;;;;5067683;28;20227;-74
2022/09/21 04:47:24;;;;;;;1.17;1.17;;;8.60;99.90;;;;;;5067415;28;20235;-71
2022/09/21 04:49:51;;;;;;;1.17;1.10;;;8.70;99.90;;;;;;5069550;28;20211;-72
2022/09/21 04:52:18;;;;;;;2.87;1.40;;;8.60;99.90;;;;;;5071563;28;20261;-71
2022/09/21 04:54:45;;;;;;;2.33;1.50;;;8.60;99.90;;;;;;5071428;28;20234;-70
2022/09/21 04:57:12;;;;;;;2.07;1.20;;;8.60;99.90;;;;;;5071215;28;20670;-71
2022/09/21 04:59:39;;;;;;;1.87;1.30;;;8.70;99.90;;;;;;5070658;28;20364;-70
2022/09/21 05:02:07;;;;;;;1.20;1.20;;;8.60;99.90;;;;;;5049482;28;20235;-70
2022/09/21 05:04:34;;;;;;;1.33;1.23;;;8.70;99.90;;;;;;5070057;28;20211;-70
2022/09/21 05:07:01;;;;;;;4.30;1.50;;;8.70;99.90;;;;;;5071011;28;20219;-71
2022/09/21 05:12:11;;;;;;;1.63;1.53;;;8.60;99.90;;;;;;5070832;28;20237;-70
2022/09/21 05:14:39;;;;;;;1.60;1.50;;;8.60;99.90;;;;;;5051325;28;20204;-71
2022/09/21 05:17:07;;;;;;;1.60;1.50;;;8.70;99.90;;;;;;5050736;28;20211;-71
2022/09/21 05:19:34;;;;;;;2.67;1.67;;;8.70;99.90;;;;;;5050472;28;20232;-68
2022/09/21 05:22:01;;;;;;;3.93;1.70;;;8.70;99.90;;;;;;5050573;28;20235;-69
2022/09/21 05:24:28;;;;;;;1.73;1.43;;;8.70;99.90;;;;;;5057490;28;20215;-71
2022/09/21 05:26:54;;;;;;;1.73;1.60;;;8.70;99.90;;;;;;5070544;28;20204;-71
2022/09/21 05:29:21;;;;;;;1.63;1.53;;;8.70;99.90;;;;;;5053931;28;20212;-71
2022/09/21 05:31:52;;;;;;;2.03;1.70;;;8.70;99.90;;;;;;5050522;28;20204;-70
2022/09/21 05:34:33;;;;;;;2.00;1.70;;;8.70;99.90;;;;;;5050642;28;20204;-71
2022/09/21 05:37:06;;;;;;;1.47;1.33;;;8.70;99.90;;;;;;5050235;28;20612;-71
2022/09/21 05:39:33;;;;;;;2.77;1.97;;;8.70;99.90;;;;;;5057477;28;20676;-70
2022/09/21 05:42:00;;;;;;;3.10;1.70;;;8.70;99.90;;;;;;5070169;28;20203;-70
2022/09/21 05:44:28;;;;;;;3.60;1.47;;;8.80;99.90;;;;;;5070215;28;20210;-70
2022/09/21 05:47:01;;;;;;;1.50;1.40;;;8.80;99.90;;;;;;5069827;28;20666;-69
2022/09/21 05:49:39;;;;;;;2.00;1.70;;;8.90;99.90;;;;;;5070058;28;20187;-70
2022/09/21 05:52:16;;;;;;;2.50;1.47;;;8.90;99.90;;;;;;5070026;28;20199;-70
2022/09/21 05:54:55;;;;;;;4.00;1.60;;;9.00;99.90;;;;;;5069972;28;20206;-70
2022/09/21 05:57:33;;;;;;;1.70;1.60;;;9.00;99.90;;;;;;5070155;28;20202;-70
2022/09/21 06:00:07;;;;;;;2.20;2.00;;;8.80;99.90;;;;;;5069429;28;20588;-70
2022/09/21 06:02:50;;;;;;;1.60;1.50;;;8.70;99.90;;;;;;5067162;28;20207;-70
2022/09/21 06:05:19;;;;;;;1.87;1.77;;;8.60;99.90;;;;;;5049799;28;20188;-70
2022/09/21 06:07:46;;;;;;;2.73;1.80;;;8.70;99.90;;;;;;5049389;28;20733;-70
2022/09/21 06:10:14;;;;;;;1.90;1.80;;;8.60;99.90;;;;;;5049930;28;20208;-70
2022/09/21 06:12:41;;;;;;;2.03;1.93;;;8.70;99.90;;;;;;5049610;28;20207;-70
2022/09/21 06:15:12;;;;;;;2.50;1.87;;;8.70;99.90;;;;;;5049717;28;20663;-70
2022/09/21 06:17:39;;;;;;;1.97;1.80;;;8.70;99.90;;;;;;5049707;28;20298;-70
2022/09/21 06:20:07;;;;;;;2.50;2.10;;;8.80;99.90;;;;;;5049127;28;20236;-70
2022/09/21 06:22:36;;;;;;;1.90;1.80;;;8.80;99.90;;;;;;5049528;28;20231;-70
2022/09/21 06:25:02;;;;;;;2.80;2.00;;;8.90;99.90;;;;;;5061142;28;20215;-70
2022/09/21 06:27:29;;;;;;;2.60;1.80;;;8.80;99.90;;;;;;5069280;28;20210;-70
2022/09/21 06:29:56;;;;;;;2.83;1.90;;;8.80;99.90;;;;;;5069549;28;20298;-70
2022/09/21 06:32:23;;;;;;;2.20;2.00;;;8.90;99.90;;;;;;5069112;28;20572;-70
2022/09/21 06:34:50;;;;;;;3.13;1.80;;;8.90;99.90;;;;;;5069461;28;20215;-71
2022/09/21 06:37:17;;;;;;;3.50;2.13;;;9.00;99.90;;;;;;5049394;28;20236;-76
2022/09/21 06:39:45;;;;;;;2.07;1.70;;;9.00;99.90;;;;;;5048963;28;20215;-70
2022/09/21 06:42:11;;;;;;;1.80;1.70;;;9.00;99.90;;;;;;5049427;28;20605;-70
2022/09/21 06:44:38;;;;;;;2.17;1.97;;;9.10;99.90;;;;;;5049305;28;20569;-70
2022/09/21 06:47:05;;;;;;;1.80;1.70;;;9.10;99.90;;;;;;5049306;28;20212;-70
2022/09/21 06:49:32;;;;;;;2.70;2.00;;;9.20;99.90;;;;;;5048994;28;20208;-70
2022/09/21 06:51:58;;;;;;;4.23;1.87;;;9.30;99.90;;;;;;5049124;28;20204;-69
2022/09/21 06:54:25;;;;;;;1.93;1.83;;;9.30;99.90;;;;;;5055670;28;20215;-70
2022/09/21 06:56:53;;;;;;;2.47;2.27;;;9.40;99.90;;;;;;5068836;28;20207;-70
2022/09/21 06:59:20;;;;;;;2.40;2.20;;;9.50;99.90;;;;;;5069033;28;20576;-70
2022/09/21 07:01:47;;;;;;;2.73;2.53;;;9.60;99.90;;;;;;5068430;28;20231;-70
2022/09/21 07:04:14;;;;;;;4.43;2.77;;;9.70;99.90;;;;;;5052411;28;20200;-70
2022/09/21 07:06:40;;;;;;;2.60;2.40;;;9.60;99.90;;;;;;5048574;28;20205;-70
2022/09/21 07:09:07;;;;;;;3.77;2.20;;;9.60;99.90;;;;;;5049016;28;20575;-70
2022/09/21 07:11:34;;;;;;;4.37;2.70;;;9.60;99.90;;;;;;5047372;28;20216;-70
2022/09/21 07:14:03;;;;;;;2.70;2.50;;;9.70;99.90;;;;;;5048311;28;21004;-70
2022/09/21 07:16:29;;;;;;;4.40;2.50;;;9.70;99.90;;;;;;5048565;28;20368;-70
2022/09/21 07:18:56;;;;;;;5.23;2.33;;;9.70;99.90;;;;;;5048471;28;20578;-70
2022/09/21 07:21:23;;;;;;;2.90;2.70;;;9.70;99.90;;;;;;5047919;28;20240;-70
2022/09/21 07:23:50;;;;;;;2.70;2.50;;;9.70;99.90;;;;;;5050201;28;20208;-70
2022/09/21 07:26:16;;;;;;;2.60;2.40;;;9.60;99.90;;;;;;5068328;28;20215;-70
2022/09/21 07:28:43;;;;;;;4.60;2.70;;;9.60;99.90;;;;;;5068293;28;20251;-70
2022/09/21 07:31:13;;;;;;;3.80;3.10;;;9.70;99.90;;;;;;5068334;28;20662;-70
2022/09/21 07:33:41;;;;;;;3.10;2.70;;;9.60;99.90;;;;;;5068192;28;20192;-70
2022/09/21 07:36:11;;;;;;;3.03;2.83;;;9.60;99.90;;;;;;5067841;28;20211;-71
2022/09/21 07:38:39;;;;;;;3.17;2.87;;;9.70;99.90;;;;;;5067875;28;20202;-72
2022/09/21 07:41:06;;;;;;;3.77;2.80;;;9.70;99.90;;;;;;5067651;28;20250;-72
2022/09/21 07:43:34;;;;;;;4.23;2.90;;;9.70;99.90;;;;;;5067569;28;20682;-71
2022/09/21 07:46:01;;;;;;;2.67;2.47;;;9.70;99.90;;;;;;5067664;28;20658;-72
2022/09/21 07:48:30;;;;;;;4.07;2.83;;;9.70;99.90;;;;;;5067729;28;20212;-71
2022/09/21 07:51:03;;;;;;;3.77;3.20;;;9.80;99.90;;;;;;5067703;28;20251;-71
2022/09/21 07:53:31;;;;;;;3.03;2.83;;;9.80;99.90;;;;;;5067809;28;20199;-72
2022/09/21 07:56:01;;;;;;;3.13;2.90;;;9.90;99.90;;;;;;5067781;28;20230;-72
2022/09/21 08:01:12;;;;;;;4.67;2.83;;;10.00;99.90;;;;;;5067487;28;20222;-72
2022/09/21 08:03:40;;;;;;;3.83;3.30;;;10.20;99.90;;;;;;5067183;28;20739;-73
2022/09/21 08:06:08;;;;;;;3.80;3.50;;;10.30;99.90;;;;;;5067493;28;20211;-72
2022/09/21 08:08:34;;;;;;;3.00;2.80;;;10.50;99.90;;;;;;5062902;28;20208;-72
2022/09/21 08:11:03;;;;;;;5.30;2.97;;;10.60;99.90;;;;;;5063553;28;20218;-72
2022/09/21 08:13:30;;;;;;;3.50;2.83;;;10.70;99.90;;;;;;5053500;28;20200;-72
2022/09/21 08:16:00;;;;;;;4.60;2.70;;;10.80;99.90;;;;;;5043730;28;20208;-73
2022/09/21 08:18:28;;;;;;;4.20;3.37;;;11.00;99.90;;;;;;5062804;28;20207;-71
2022/09/21 08:20:57;;;;;;;3.30;2.93;;;11.10;99.90;;;;;;5081550;28;20222;-73
2022/09/21 08:23:24;;;;;;;4.90;3.20;;;11.10;99.90;;;;;;5083186;28;20210;-72
2022/09/21 08:25:51;;;;;;;5.93;2.87;;;11.20;99.90;;;;;;5046426;28;20214;-72
2022/09/21 08:28:18;;;;;;;3.20;2.90;;;11.30;99.90;;;;;;5043986;28;20214;-72
2022/09/21 08:30:45;;;;;;;5.30;3.03;;;11.30;99.90;;;;;;5044400;28;20242;-72
2022/09/21 08:33:12;;;;;;;3.83;2.90;;;11.40;99.90;;;;;;5044486;28;20200;-72
2022/09/21 08:35:38;;;;;;;3.17;2.97;;;11.60;99.90;;;;;;5043826;28;20216;-72
2022/09/21 08:38:07;;;;;;;3.27;2.97;;;11.70;99.90;;;;;;5043726;28;20718;-72
2022/09/21 08:40:34;;;;;;;3.43;3.13;;;11.80;99.90;;;;;;5043597;28;20242;-72
2022/09/21 08:43:06;;;;;;;3.70;3.37;;;11.90;99.90;;;;;;5044195;28;20236;-72
2022/09/21 08:45:37;;;;;;;3.70;2.63;;;11.90;99.90;;;;;;5043997;28;20522;-72
2022/09/21 08:48:10;;;;;;;2.70;2.50;;;12.00;99.90;;;;;;5044091;28;20694;-72
2022/09/21 08:50:40;;;;;;;3.40;3.13;;;12.00;99.90;;;;;;5044039;28;20201;-72
2022/09/21 08:53:17;;;;;;;2.67;2.53;;;12.00;99.90;;;;;;5044075;28;20200;-72
2022/09/21 08:55:44;;;;;;;2.77;2.57;;;12.10;99.90;;;;;;5051859;28;20202;-72
2022/09/21 08:58:21;;;;;;;2.93;2.73;;;12.20;99.90;;;;;;5084193;28;20203;-72
2022/09/21 09:00:56;;;;;;;3.40;2.87;;;12.30;99.90;;;;;;5084409;28;20215;-72
2022/09/21 09:03:34;;;;;;;3.40;3.10;;;12.40;99.90;;;;;;5064743;28;20211;-72
2022/09/21 09:06:07;;;;;;;3.07;2.77;;;12.60;99.90;;;;;;5043795;28;20223;-72
2022/09/21 09:09:00;;;;;;;2.73;2.47;;;12.70;99.90;;;;;;5043865;28;20237;-72
2022/09/21 09:11:39;;;;;;;3.30;3.00;;;12.90;99.90;;;;;;5043794;28;20219;-72
2022/09/21 09:14:30;;;;;;;2.90;2.60;;;12.90;99.90;;;;;;5058033;28;20215;-72
2022/09/21 09:17:21;;;;;;;3.70;2.30;;;13.10;99.90;;;;;;5064057;28;20200;-72
2022/09/21 09:19:55;;;;;;;3.63;2.60;;;13.10;99.90;;;;;;5063496;28;20204;-72
2022/09/21 09:22:26;;;;;;;5.13;2.30;;;13.20;99.90;;;;;;5063713;28;20238;-73
2022/09/21 09:25:00;;;;;;;5.20;2.90;;;13.40;99.90;;;;;;5053229;28;20203;-72
2022/09/21 09:27:30;;;;;;;2.60;2.10;;;13.50;99.90;;;;;;5043639;28;20211;-72
2022/09/21 09:30:01;;;;;;;2.17;2.07;;;13.60;99.90;;;;;;5043980;28;20196;-73
2022/09/21 09:32:34;;;;;;;2.10;2.00;;;13.70;99.90;;;;;;5043306;28;20204;-72
2022/09/21 09:35:07;;;;;;;2.10;2.00;;;13.80;99.90;;;;;;5044319;28;20580;-72
2022/09/21 09:37:38;;;;;;;1.80;1.70;;;14.00;99.90;;;;;;5047429;28;20247;-73
2022/09/21 09:40:07;;;;;;;2.33;1.80;;;14.10;99.90;;;;;;5047429;28;20204;-72
2022/09/21 09:42:46;;;;;;;2.03;1.90;;;14.20;99.90;;;;;;5047451;28;20297;-73
2022/09/21 09:45:25;;;;;;;2.70;1.67;;;14.30;99.90;;;;;;5047563;28;20188;-73
2022/09/21 09:48:03;;;;;;;2.77;1.53;;;14.50;99.90;;;;;;5047278;28;20200;-73
2022/09/21 09:50:33;;;;;;;1.70;1.60;;;14.50;99.90;;;;;;5046816;28;20254;-73
2022/09/21 09:53:04;;;;;;;1.50;1.40;;;14.50;99.90;;;;;;5047494;28;20219;-73
2022/09/21 09:55:37;;;;;;;2.13;1.50;;;14.40;99.90;;;;;;5065080;28;20282;-73
2022/09/21 09:58:05;;;;;;;1.63;1.30;;;14.40;99.90;;;;;;5087138;28;20199;-73
2022/09/21 10:00:32;;;;;;;1.20;1.20;;;14.50;99.90;;;;;;5086982;28;20199;-73
2022/09/21 10:02:59;;;;;;;1.97;1.23;;;14.50;99.90;;;;;;5074454;28;20212;-73
2022/09/21 10:05:33;;;;;;;1.20;1.20;;;14.50;99.90;;;;;;5046770;28;20208;-73
2022/09/21 10:08:00;;;;;;;1.63;0.90;;;14.60;99.90;;;;;;5046852;28;20196;-73
2022/09/21 10:10:37;;;;;;;0.77;0.77;;;14.80;99.90;;;;;;5061461;28;20208;-73
2022/09/21 10:13:12;;;;;;;1.00;0.93;;;14.90;99.90;;;;;;5066275;28;20207;-73
2022/09/21 10:15:43;;;;;;;2.57;0.60;;;14.80;99.90;;;;;;5066232;28;20708;-73
2022/09/21 10:18:18;;;;;;;2.00;0.90;;;14.80;99.90;;;;;;5066563;28;20191;-73
2022/09/21 10:20:57;;;;;;;0.70;0.70;;;14.80;99.90;;;;;;5066103;28;20195;-73
2022/09/21 10:23:24;;;;;;;1.10;0.70;;;14.70;99.90;;;;;;5066102;28;20212;-73
2022/09/21 10:25:59;;;;;;;1.37;0.70;;;14.60;99.90;;;;;;5066776;28;20223;-73
2022/09/21 10:28:27;;;;;;;0.90;0.90;;;14.40;99.90;;;;;;5066291;28;20198;-73
2022/09/21 10:31:10;;;;;;;1.00;1.00;;;14.40;99.90;;;;;;5066232;28;20218;-73
2022/09/21 10:33:49;;;;;;;1.30;1.20;;;14.40;99.90;;;;;;5066310;28;20199;-73
2022/09/21 10:36:31;;;;;;;1.40;1.30;;;14.40;99.90;;;;;;5065861;28;20304;-73
2022/09/21 10:39:18;;;;;;;1.30;1.30;;;14.50;99.90;;;;;;5066190;28;20211;-73
2022/09/21 10:41:51;;;;;;;2.77;1.30;;;14.60;99.90;;;;;;5065845;28;20231;-73
2022/09/21 10:44:19;;;;;;;1.63;1.40;;;14.60;99.90;;;;;;5065686;28;20203;-73
2022/09/21 10:46:48;;;;;;;1.37;1.27;;;14.70;99.90;;;;;;5065698;28;20211;-72
2022/09/21 10:49:21;;;;;;;1.10;1.10;;;14.70;99.90;;;;;;5066188;28;20630;-73
2022/09/21 10:51:50;;;;;;;0.97;0.97;;;14.60;99.90;;;;;;5065894;28;20214;-73
2022/09/21 10:54:22;;;;;;;0.80;0.80;;;14.60;99.90;;;;;;5066044;28;20211;-73
2022/09/21 10:56:54;;;;;;;1.90;0.57;;;14.50;99.90;;;;;;5078952;28;20206;-73
2022/09/21 10:59:24;;;;;;;0.80;0.80;;;14.60;99.90;;;;;;5086306;28;20491;-73
2022/09/21 11:01:52;;;;;;;0.70;0.70;;;14.80;99.90;;;;;;5086165;28;20245;-73
2022/09/21 11:04:36;;;;;;;1.10;1.03;;;15.10;99.90;;;;;;5050905;28;20215;-73
2022/09/21 11:07:12;;;;;;;0.90;0.90;;;15.50;99.90;;;;;;5063491;28;20587;-74
2022/09/21 11:09:43;;;;;;;0.90;0.90;;;15.80;99.90;;;;;;5065670;28;20206;-73
2022/09/21 11:12:29;;;;;;;1.80;0.70;;;15.80;99.90;;;;;;5065513;28;20208;-73
2022/09/21 11:15:03;;;;;;;0.90;0.90;;;15.70;99.90;;;;;;5045805;28;20197;-72
2022/09/21 11:17:40;;;;;;;1.07;0.60;;;15.70;99.90;;;;;;5056976;28;20703;-72
2022/09/21 11:20:22;;;;;;;1.00;0.97;;;15.60;99.90;;;;;;5065249;28;20228;-73
2022/09/21 11:23:00;;;;;;;1.07;1.07;;;15.50;99.90;;;;;;5065317;28;20240;-72
2022/09/21 11:25:36;;;;;;;1.20;1.10;;;15.30;99.90;;;;;;5065067;28;20207;-72
2022/09/21 11:28:14;;;;;;;0.97;0.97;;;15.30;99.90;;;;;;5065249;28;20195;-73
2022/09/21 11:30:58;;;;;;;0.83;0.83;;;15.20;99.90;;;;;;5064755;28;20567;-73
2022/09/21 11:33:38;;;;;;;0.70;0.70;;;15.20;99.90;;;;;;5065103;28;20579;-73
2022/09/21 11:36:11;;;;;;;0.70;0.70;;;15.20;99.90;;;;;;5064713;28;20199;-73
2022/09/21 11:38:48;;;;;;;0.80;0.80;;;15.40;99.90;;;;;;5064553;28;20657;-73
2022/09/21 11:41:28;;;;;;;0.93;0.93;;;15.60;99.90;;;;;;5064747;28;20200;-73
2022/09/21 11:44:16;;;;;;;1.07;0.80;;;15.70;99.90;;;;;;5064846;28;20738;-73
2022/09/21 11:46:50;;;;;;;0.90;0.90;;;15.70;99.90;;;;;;5065117;28;20548;-73
2022/09/21 11:49:45;;;;;;;1.00;0.90;;;15.60;99.90;;;;;;5064865;28;20721;-73
2022/09/21 11:52:26;;;;;;;0.90;0.90;;;15.60;99.90;;;;;;5064822;28;20802;-73
2022/09/21 11:55:19;;;;;;;2.23;1.00;;;15.50;99.90;;;;;;5064722;28;20207;-72
2022/09/21 11:57:52;;;;;;;1.03;0.80;;;15.40;99.90;;;;;;5043990;28;20218;-73
2022/09/21 12:00:21;;;;;;;0.80;0.80;;;15.40;99.90;;;;;;5044684;28;20200;-73
2022/09/21 12:03:22;;;;;;;0.70;0.70;;;15.30;99.90;;;;;;5057979;28;20231;-73
2022/09/21 12:06:02;;;;;;;0.80;0.80;;;15.30;99.90;;;;;;5063924;28;20575;-72
2022/09/21 12:08:44;;;;;;;0.80;0.80;;;15.50;99.90;;;;;;5064540;28;20542;-72
2022/09/21 12:11:21;;;;;;;2.73;0.93;;;15.70;99.90;;;;;;5064998;28;20199;-72
2022/09/21 12:13:57;;;;;;;0.60;0.60;;;15.80;99.90;;;;;;5063962;28;20211;-72
2022/09/21 12:16:32;;;;;;;0.60;0.60;;;15.80;99.90;;;;;;5064357;28;20588;-73
2022/09/21 12:19:07;;;;;;;1.50;0.90;;;15.80;99.90;;;;;;5063948;28;20912;-73
2022/09/21 12:21:38;;;;;;;1.47;0.90;;;15.70;99.90;;;;;;5063749;28;20234;-73
2022/09/21 12:24:12;;;;;;;0.70;0.70;;;15.60;99.90;;;;;;5064344;28;20207;-73
2022/09/21 12:26:43;;;;;;;0.83;0.80;;;15.60;99.90;;;;;;5063959;28;20191;-73
2022/09/21 12:29:16;;;;;;;1.70;0.73;;;15.40;99.90;;;;;;5064533;28;20212;-73
2022/09/21 12:31:51;;;;;;;1.50;0.70;;;15.40;99.90;;;;;;5064142;28;20211;-73
2022/09/21 12:34:22;;;;;;;2.00;0.70;;;15.30;99.90;;;;;;5061402;28;20294;-73
2022/09/21 12:37:00;;;;;;;0.87;0.80;;;15.20;99.90;;;;;;5046801;28;20718;-73
2022/09/21 12:39:31;;;;;;;2.30;0.83;;;15.20;99.90;;;;;;5047219;28;20215;-73
2022/09/21 12:42:02;;;;;;;1.37;1.13;;;15.20;99.90;;;;;;5047446;28;20219;-73
2022/09/21 12:44:50;;;;;;;3.23;1.17;;;15.50;99.90;;;;;;5046926;28;20196;-72
2022/09/21 12:47:22;;;;;;;1.33;1.03;;;15.90;99.90;;;;;;5047204;28;20198;-72
2022/09/21 12:49:53;;;;;;;1.20;1.10;;;16.40;99.90;;;;;;5047157;28;20621;-72
2022/09/21 12:52:23;;;;;;;0.70;0.70;;;16.70;99.90;;;;;;5047177;28;20204;-72
2022/09/21 12:54:58;;;;;;;1.30;0.77;;;17.10;99.90;;;;;;5056988;28;20218;-73
2022/09/21 12:57:33;;;;;;;1.80;0.87;;;17.30;99.90;;;;;;5066339;28;20721;-73
2022/09/21 13:00:05;;;;;;;0.80;0.80;;;17.60;99.90;;;;;;5047318;28;20203;-72
2022/09/21 13:02:40;;;;;;;1.57;0.70;;;17.80;99.90;;;;;;5047085;28;20251;-72
2022/09/21 13:05:13;;;;;;;1.63;0.70;;;18.00;99.90;;;;;;5046886;28;20203;-72
2022/09/21 13:08:06;;;;;;;3.50;0.83;;;18.20;99.90;;;;;;5046595;28;20200;-72
2022/09/21 13:10:59;;;;;;;1.83;0.77;;;18.50;99.90;;;;;;5064328;28;20203;-72
2022/09/21 13:13:30;;;;;;;1.00;0.70;;;18.60;99.90;;;;;;5058464;28;20215;-72
2022/09/21 13:15:58;;;;;;;0.77;0.70;;;18.90;99.90;;;;;;5051144;28;20215;-72
2022/09/21 13:18:31;;;;;;;0.60;0.60;;;19.10;99.90;;;;;;5050813;28;20272;-72
2022/09/21 13:21:00;;;;;;;2.13;0.60;;;19.30;99.90;;;;;;5050522;28;20224;-72